Time;durP1;ratioP1;P1;durP2;ratioP2;P2;SDS_P1;SDS_P2;PMS_P1;PMS_P2;Temp;Humidity;BMP_temperature;BMP_pressure;BME280_temperature;BME280_humidity;BME280_pressure;Samples;Min_cycle;Max_cycle;Signal;HPM_P1;HPM_P2
2021/11/18 00:03:07;;;;;;;;;;;;;;;3.03;100.00;95349.78;10402689;28;19932;-71
2021/11/18 00:08:07;;;;;;;;;;;;;;;2.95;100.00;95353.50;10417013;28;19913;-72
2021/11/18 00:13:09;;;;;;;;;;;;;;;3.05;100.00;95355.69;10417399;28;19915;-70
2021/11/18 00:18:11;;;;;;;;;;;;;;;3.00;100.00;95355.50;10416720;28;20497;-78
2021/11/18 00:23:12;;;;;;;;;;;;;;;3.05;100.00;95359.16;10401758;28;20469;-71
2021/11/18 00:28:13;;;;;;;;;;;;;;;2.86;100.00;95360.88;10417236;28;19917;-73
2021/11/18 00:33:13;;;;;;;;;;;;;;;2.75;100.00;95358.88;10424879;28;19920;-73
2021/11/18 00:38:14;;;;;;;;;;;;;;;2.61;100.00;95346.63;10424886;28;20043;-74
2021/11/18 00:43:16;;;;;;;;;;;;;;;2.64;100.00;95357.66;10407223;28;20003;-73
2021/11/18 00:48:17;;;;;;;;;;;;;;;2.67;100.00;95351.13;10424637;28;19928;-74
2021/11/18 00:53:17;;;;;;;;;;;;;;;2.77;100.00;95348.03;10408149;28;20464;-77
2021/11/18 00:58:18;;;;;;;;;;;;;;;2.84;100.00;95336.38;10423430;28;19966;-74
2021/11/18 01:03:20;;;;;;;;;;;;;;;2.70;100.00;95337.44;10423595;28;20383;-77
2021/11/18 01:08:21;;;;;;;;;;;;;;;2.69;100.00;95338.44;10423806;28;19917;-74
2021/11/18 01:13:24;;;;;;;;;;;;;;;2.78;100.00;95339.03;10409127;28;19924;-73
2021/11/18 01:18:24;;;;;;;;;;;;;;;2.77;100.00;95340.88;10423551;28;20015;-77
2021/11/18 01:23:27;;;;;;;;;;;;;;;2.72;100.00;95352.13;10406094;28;20020;-75
2021/11/18 01:28:27;;;;;;;;;;;;;;;2.59;100.00;95357.47;10406701;28;19924;-77
2021/11/18 01:33:27;;;;;;;;;;;;;;;2.42;100.00;95353.63;10405940;28;20292;-75
2021/11/18 01:38:31;;;;;;;;;;;;;;;2.51;100.00;95342.59;10405970;28;19924;-74
2021/11/18 01:43:34;;;;;;;;;;;;;;;2.41;100.00;95344.03;10409235;28;19971;-75
2021/11/18 01:48:34;;;;;;;;;;;;;;;2.48;100.00;95342.19;10405670;28;19920;-77
2021/11/18 01:53:37;;;;;;;;;;;;;;;2.51;100.00;95339.09;10405761;28;19959;-76
2021/11/18 01:58:38;;;;;;;;;;;;;;;2.37;100.00;95341.81;10405718;28;19917;-76
2021/11/18 02:03:38;;;;;;;;;;;;;;;2.21;100.00;95339.56;10405355;28;20432;-73
2021/11/18 02:08:39;;;;;;;;;;;;;;;2.28;100.00;95343.03;10404986;28;19917;-76
2021/11/18 02:13:39;;;;;;;;;;;;;;;2.34;100.00;95339.53;10404805;28;19956;-74
2021/11/18 02:18:40;;;;;;;;;;;;;;;2.31;100.00;95337.31;10405198;28;19920;-77
2021/11/18 02:23:59;;;;;;;;;;;;;;;2.35;100.00;95340.38;10404223;28;19991;-73
2021/11/18 02:29:03;;;;;;;;;;;;;;;2.28;100.00;95348.34;10404003;28;20004;-73
2021/11/18 02:34:07;;;;;;;;;;;;;;;2.27;100.00;95337.94;10403686;28;19913;-73
2021/11/18 02:39:08;;;;;;;;;;;;;;;2.18;100.00;95353.25;10404426;28;20314;-78
2021/11/18 02:44:08;;;;;;;;;;;;;;;2.00;100.00;95359.97;10403380;28;19921;-74
2021/11/18 02:49:08;;;;;;;;;;;;;;;2.14;100.00;95365.28;10404002;28;19994;-73
2021/11/18 02:54:09;;;;;;;;;;;;;;;1.94;100.00;95374.06;10402991;28;20261;-73
2021/11/18 02:59:09;;;;;;;;;;;;;;;1.82;100.00;95371.16;10403500;28;19917;-76
2021/11/18 03:04:10;;;;;;;;;;;;;;;1.85;100.00;95365.47;10404856;28;19917;-78
2021/11/18 03:09:10;;;;;;;;;;;;;;;1.77;100.00;95378.09;10402915;28;19926;-76
2021/11/18 03:14:11;;;;;;;;;;;;;;;1.80;100.00;95372.38;10402445;28;19917;-76
2021/11/18 03:19:11;;;;;;;;;;;;;;;1.85;100.00;95370.75;10402554;28;19932;-72
2021/11/18 03:24:11;;;;;;;;;;;;;;;1.75;100.00;95362.41;10401660;28;19964;-76
2021/11/18 03:29:12;;;;;;;;;;;;;;;1.87;100.00;95366.09;10402030;28;19913;-76
2021/11/18 03:34:15;;;;;;;;;;;;;;;1.66;100.00;95366.25;10401522;28;19975;-76
2021/11/18 03:39:17;;;;;;;;;;;;;;;1.67;100.00;95383.78;10401359;28;20011;-73
2021/11/18 03:44:18;;;;;;;;;;;;;;;1.77;100.00;95386.03;10401363;28;19932;-72
2021/11/18 03:49:18;;;;;;;;;;;;;;;1.83;100.00;95375.47;10401161;28;20375;-76
2021/11/18 03:54:20;;;;;;;;;;;;;;;1.82;100.00;95379.13;10401623;28;19920;-77
2021/11/18 03:59:22;;;;;;;;;;;;;;;2.08;100.00;95384.66;10400779;28;19949;-76
2021/11/18 04:04:25;;;;;;;;;;;;;;;2.22;100.00;95373.03;10385353;28;19926;-73
2021/11/18 04:09:25;;;;;;;;;;;;;;;2.21;100.00;95376.69;10396433;28;20383;-76
2021/11/18 04:14:27;;;;;;;;;;;;;;;2.29;100.00;95370.34;10397081;28;20421;-73
2021/11/18 04:19:27;;;;;;;;;;;;;;;2.51;100.00;95371.78;10380897;28;20418;-75
2021/11/18 04:24:29;;;;;;;;;;;;;;;2.60;100.00;95364.41;10395560;28;19917;-73
2021/11/18 04:29:30;;;;;;;;;;;;;;;2.69;100.00;95362.34;10398318;28;19913;-73
2021/11/18 04:34:30;;;;;;;;;;;;;;;2.74;100.00;95360.69;10381491;28;19939;-72
2021/11/18 04:39:31;;;;;;;;;;;;;;;2.90;100.00;95363.91;10378991;28;19949;-73
2021/11/18 04:44:31;;;;;;;;;;;;;;;3.07;100.00;95356.31;10407271;28;19947;-74
2021/11/18 04:49:31;;;;;;;;;;;;;;;3.20;100.00;95356.25;10396715;28;19972;-72
2021/11/18 04:54:32;;;;;;;;;;;;;;;3.17;100.00;95361.19;10398202;28;20349;-73
2021/11/18 04:59:32;;;;;;;;;;;;;;;3.34;100.00;95362.31;10381468;28;19918;-73
2021/11/18 05:04:33;;;;;;;;;;;;;;;3.39;100.00;95354.53;10380393;28;19928;-76
2021/11/18 05:09:33;;;;;;;;;;;;;;;3.21;100.00;95365.84;10406159;28;19975;-76
2021/11/18 05:14:33;;;;;;;;;;;;;;;3.15;100.00;95357.91;10399931;28;19923;-73
2021/11/18 05:19:34;;;;;;;;;;;;;;;3.24;100.00;95361.97;10412296;28;20432;-77
2021/11/18 05:24:34;;;;;;;;;;;;;;;3.43;100.00;95368.19;10402883;28;19924;-74
2021/11/18 05:29:34;;;;;;;;;;;;;;;3.48;100.00;95372.88;10405887;28;20020;-76
2021/11/18 05:34:39;;;;;;;;;;;;;;;3.51;100.00;95383.09;10405847;28;19913;-75
2021/11/18 05:39:39;;;;;;;;;;;;;;;3.54;100.00;95399.41;10404988;28;19925;-78
2021/11/18 05:44:39;;;;;;;;;;;;;;;3.45;100.00;95408.66;10421865;28;19979;-74
2021/11/18 05:49:40;;;;;;;;;;;;;;;3.46;100.00;95417.44;10405079;28;19919;-74
2021/11/18 05:54:40;;;;;;;;;;;;;;;3.38;100.00;95416.66;10404664;28;19917;-77
2021/11/18 05:59:40;;;;;;;;;;;;;;;3.46;100.00;95412.97;10418174;28;19917;-73
2021/11/18 06:04:40;;;;;;;;;;;;;;;3.35;100.00;95418.91;10401661;28;20361;-73
2021/11/18 06:09:41;;;;;;;;;;;;;;;3.51;100.00;95413.13;10404817;28;20482;-78
2021/11/18 06:14:42;;;;;;;;;;;;;;;3.83;100.00;95423.78;10420463;28;20350;-77
2021/11/18 06:19:42;;;;;;;;;;;;;;;4.07;100.00;95424.06;10421082;28;19913;-73
2021/11/18 06:24:43;;;;;;;;;;;;;;;4.14;100.00;95426.69;10405841;28;19917;-72
2021/11/18 06:29:43;;;;;;;;;;;;;;;4.42;100.00;95427.09;10403673;28;19913;-77
2021/11/18 06:34:44;;;;;;;;;;;;;;;4.68;100.00;95427.88;10420300;28;19963;-76
2021/11/18 06:39:45;;;;;;;;;;;;;;;5.01;100.00;95423.25;10402767;28;19925;-78
2021/11/18 06:44:45;;;;;;;;;;;;;;;5.25;100.00;95425.06;10403023;28;20466;-78
2021/11/18 06:49:45;;;;;;;;;;;;;;;5.48;100.00;95424.38;10403476;28;19919;-77
2021/11/18 06:54:49;;;;;;;;;;;;;;;5.65;100.00;95429.91;10402707;28;19963;-79
2021/11/18 06:59:49;;;;;;;;;;;;;;;5.70;100.00;95436.44;10407779;28;20309;-72
2021/11/18 07:04:50;;;;;;;;;;;;;;;5.78;100.00;95446.78;10418180;28;19917;-73
2021/11/18 07:09:51;;;;;;;;;;;;;;;5.74;100.00;95446.41;10418566;28;19919;-78
2021/11/18 07:14:51;;;;;;;;;;;;;;;5.77;100.00;95439.81;10403848;28;19913;-76
2021/11/18 07:19:52;;;;;;;;;;;;;;;5.74;100.00;95437.59;10418417;28;19928;-74
2021/11/18 07:24:52;;;;;;;;;;;;;;;5.66;100.00;95446.72;10419670;28;19924;-74
2021/11/18 07:29:53;;;;;;;;;;;;;;;5.82;100.00;95450.63;10401545;28;20283;-74
2021/11/18 07:34:53;;;;;;;;;;;;;;;5.77;100.00;95450.50;10401194;28;19913;-74
2021/11/18 07:39:54;;;;;;;;;;;;;;;5.88;100.00;95452.38;10416874;28;19927;-79
2021/11/18 07:44:54;;;;;;;;;;;;;;;5.80;100.00;95456.19;10417563;28;20433;-73
2021/11/18 07:49:54;;;;;;;;;;;;;;;5.80;100.00;95455.38;10417084;28;20403;-72
2021/11/18 07:54:54;;;;;;;;;;;;;;;6.05;100.00;95460.59;10417159;28;20288;-79
2021/11/18 07:59:55;;;;;;;;;;;;;;;6.28;100.00;95467.06;10417319;28;19913;-74
2021/11/18 08:04:55;;;;;;;;;;;;;;;6.20;100.00;95468.19;10399798;28;19957;-79
2021/11/18 08:09:55;;;;;;;;;;;;;;;6.31;100.00;95456.75;10416492;28;20280;-74
2021/11/18 08:14:55;;;;;;;;;;;;;;;6.37;100.00;95473.72;10401659;28;19967;-73
2021/11/18 08:19:56;;;;;;;;;;;;;;;6.59;100.00;95467.84;10400040;28;19924;-74
2021/11/18 08:24:56;;;;;;;;;;;;;;;6.59;100.00;95471.31;10399689;28;19918;-76
2021/11/18 08:29:57;;;;;;;;;;;;;;;6.56;100.00;95482.47;10400929;28;19967;-74
2021/11/18 08:34:57;;;;;;;;;;;;;;;6.69;100.00;95475.28;10399593;28;20382;-78
2021/11/18 08:39:57;;;;;;;;;;;;;;;6.62;100.00;95481.53;10399903;28;19929;-74
2021/11/18 08:44:58;;;;;;;;;;;;;;;6.46;100.00;95488.38;10400861;28;19967;-78
2021/11/18 08:49:58;;;;;;;;;;;;;;;6.48;100.00;95496.94;10402583;28;20375;-73
2021/11/18 08:55:00;;;;;;;;;;;;;;;6.31;100.00;95495.97;10407648;28;20355;-78
2021/11/18 09:00:00;;;;;;;;;;;;;;;6.55;100.00;95494.19;10407613;28;20095;-74
2021/11/18 09:05:00;;;;;;;;;;;;;;;6.79;100.00;95496.91;10407345;28;19917;-76
2021/11/18 09:10:01;;;;;;;;;;;;;;;6.98;100.00;95495.75;10382934;28;20449;-76
2021/11/18 09:15:02;;;;;;;;;;;;;;;7.18;100.00;95495.41;10365887;28;20310;-79
2021/11/18 09:20:04;;;;;;;;;;;;;;;7.27;100.00;95497.72;10382250;28;20358;-73
2021/11/18 09:25:06;;;;;;;;;;;;;;;7.31;100.00;95494.38;10365416;28;20354;-73
2021/11/18 09:30:09;;;;;;;;;;;;;;;7.35;100.00;95489.34;10365482;28;19923;-74
2021/11/18 09:35:11;;;;;;;;;;;;;;;7.36;100.00;95491.78;10366417;28;19984;-79
2021/11/18 09:40:15;;;;;;;;;;;;;;;7.35;100.00;95482.16;10364930;28;19925;-76
2021/11/18 09:45:18;;;;;;;;;;;;;;;7.18;100.00;95482.03;10365076;28;19930;-76
2021/11/18 09:50:32;;;;;;;;;;;;;;;7.24;100.00;95483.00;10364581;28;19988;-79
2021/11/18 09:55:51;;;;;;;;;;;;;;;7.38;100.00;95472.03;10392239;28;19917;-78
2021/11/18 10:01:00;;;;;;;;;;;;;;;7.49;100.00;95471.22;10405451;28;19958;-81
2021/11/18 10:06:10;;;;;;;;;;;;;;;7.72;100.00;95466.84;10421037;28;19914;-72
2021/11/18 10:11:10;;;;;;;;;;;;;;;7.61;100.00;95461.31;10405807;28;19913;-78
2021/11/18 10:16:18;;;;;;;;;;;;;;;7.68;100.00;95447.78;10404450;28;19913;-77
2021/11/18 10:21:23;;;;;;;;;;;;;;;7.84;100.00;95449.72;10422369;28;20379;-72
2021/11/18 10:26:29;;;;;;;;;;;;;;;7.99;100.00;95443.03;10420542;28;19914;-79
2021/11/18 10:31:45;;;;;;;;;;;;;;;8.10;100.00;95442.16;10421012;28;19924;-74
2021/11/18 10:36:52;;;;;;;;;;;;;;;8.11;100.00;95438.44;10405477;28;20260;-74
2021/11/18 10:41:54;;;;;;;;;;;;;;;8.13;100.00;95440.88;10404821;28;19921;-76
2021/11/18 10:47:08;;;;;;;;;;;;;;;8.29;100.00;95426.72;10419753;28;19933;-71
2021/11/18 10:52:18;;;;;;;;;;;;;;;8.59;100.00;95428.31;10419937;28;20416;-74
2021/11/18 10:57:20;;;;;;;;;;;;;;;8.93;100.00;95432.84;10403144;28;19913;-77
2021/11/18 11:02:23;;;;;;;;;;;;;;;9.76;100.00;95419.47;10419105;28;19996;-77
2021/11/18 11:07:37;;;;;;;;;;;;;;;10.86;100.00;95410.31;10418861;28;19913;-74
2021/11/18 11:12:43;;;;;;;;;;;;;;;12.97;96.99;95399.41;10418736;28;20395;-78
2021/11/18 11:18:13;;;;;;;;;;;;;;;13.47;80.65;95391.50;10418692;28;19913;-78
2021/11/18 11:23:17;;;;;;;;;;;;;;;13.89;69.06;95384.84;10393299;28;20650;-77
2021/11/18 11:28:20;;;;;;;;;;;;;;;12.86;73.06;95395.91;10402886;28;19921;-76
2021/11/18 11:33:26;;;;;;;;;;;;;;;11.22;89.54;95398.97;10401649;28;19913;-77
2021/11/18 11:38:33;;;;;;;;;;;;;;;10.93;96.74;95402.81;10401369;28;19921;-76
2021/11/18 11:43:58;;;;;;;;;;;;;;;10.29;96.09;95409.00;10418162;28;19925;-73
2021/11/18 11:49:13;;;;;;;;;;;;;;;9.52;100.00;95397.44;10417410;28;19913;-79
2021/11/18 11:54:17;;;;;;;;;;;;;;;9.20;100.00;95400.81;10400921;28;20307;-76
2021/11/18 11:59:20;;;;;;;;;;;;;;;8.79;100.00;95400.19;10402465;28;19924;-74
2021/11/18 12:04:32;;;;;;;;;;;;;;;8.76;100.00;95406.84;10400356;28;19921;-78
2021/11/18 12:09:42;;;;;;;;;;;;;;;8.72;100.00;95403.88;10400103;28;20298;-74
2021/11/18 12:14:43;;;;;;;;;;;;;;;8.65;100.00;95400.56;10400766;28;19919;-74
2021/11/18 12:20:16;;;;;;;;;;;;;;;8.62;100.00;95390.31;10416660;28;20355;-78
2021/11/18 12:25:29;;;;;;;;;;;;;;;8.50;100.00;95406.47;10377075;28;20284;-73
2021/11/18 12:30:29;;;;;;;;;;;;;;;8.44;100.00;95394.03;10416908;28;19917;-76
2021/11/18 12:35:31;;;;;;;;;;;;;;;8.55;100.00;95401.22;10400886;28;19917;-76
2021/11/18 12:40:32;;;;;;;;;;;;;;;8.56;100.00;95393.97;10399868;28;20306;-77
2021/11/18 12:45:51;;;;;;;;;;;;;;;8.67;100.00;95397.63;10399778;28;19936;-76
2021/11/18 12:50:56;;;;;;;;;;;;;;;8.67;100.00;95390.38;10399136;28;19923;-73
2021/11/18 12:55:59;;;;;;;;;;;;;;;8.47;100.00;95395.41;10401404;28;19921;-77
2021/11/18 13:01:01;;;;;;;;;;;;;;;8.31;100.00;95407.72;10400338;28;19920;-76
2021/11/18 13:06:02;;;;;;;;;;;;;;;8.13;100.00;95401.53;10415858;28;19960;-74
2021/11/18 13:11:21;;;;;;;;;;;;;;;7.92;100.00;95402.22;10514930;23;20350;-75
2021/11/18 13:16:29;;;;;;;;;;;;;;;7.92;100.00;95403.03;10400345;28;19928;-78
2021/11/18 13:22:05;;;;;;;;;;;;;;;7.80;100.00;95399.59;10415377;28;19957;-77
2021/11/18 13:27:10;;;;;;;;;;;;;;;7.76;100.00;95395.75;10373135;28;19913;-73
2021/11/18 13:32:12;;;;;;;;;;;;;;;7.73;100.00;95405.09;10415322;28;19913;-74
2021/11/18 13:37:12;;;;;;;;;;;;;;;7.64;100.00;95401.97;10417734;28;19914;-74
2021/11/18 13:42:28;;;;;;;;;;;;;;;7.40;100.00;95403.09;10406000;28;19924;-75
2021/11/18 13:47:32;;;;;;;;;;;;;;;7.34;100.00;95404.88;10407296;28;19917;-75
2021/11/18 13:52:37;;;;;;;;;;;;;;;7.26;100.00;95411.38;10406647;28;19920;-78
2021/11/18 13:57:37;;;;;;;;;;;;;;;7.19;100.00;95418.72;10421944;28;19921;-77
2021/11/18 14:02:54;;;;;;;;;;;;;;;7.23;100.00;95430.56;10404746;28;19928;-76
2021/11/18 14:08:07;;;;;;;;;;;;;;;7.23;100.00;95437.75;10420966;28;19924;-73
2021/11/18 14:13:12;;;;;;;;;;;;;;;7.16;100.00;95436.03;10404321;28;20299;-73
2021/11/18 14:18:12;;;;;;;;;;;;;;;7.13;100.00;95455.22;10420805;28;20024;-79
2021/11/18 14:23:19;;;;;;;;;;;;;;;6.83;100.00;95458.00;10404174;28;19917;-75
2021/11/18 14:28:34;;;;;;;;;;;;;;;6.72;100.00;95456.13;10404243;28;19913;-73
2021/11/18 14:33:55;;;;;;;;;;;;;;;6.56;100.00;95463.78;10404075;28;20011;-77
2021/11/18 14:38:56;;;;;;;;;;;;;;;6.40;100.00;95470.56;10419990;28;19994;-76
2021/11/18 14:44:03;;;;;;;;;;;;;;;6.41;100.00;95471.41;10417769;28;19943;-75
2021/11/18 14:49:21;;;;;;;;;;;;;;;6.35;100.00;95472.31;10402638;28;20371;-77
2021/11/18 14:54:29;;;;;;;;;;;;;;;6.46;100.00;95464.34;10398237;28;19927;-73
2021/11/18 14:59:29;;;;;;;;;;;;;;;6.48;100.00;95459.56;10398201;28;19925;-78
2021/11/18 15:04:34;;;;;;;;;;;;;;;6.54;100.00;95455.16;10403825;28;19921;-77
2021/11/18 15:09:36;;;;;;;;;;;;;;;6.83;100.00;95447.31;10401289;28;20410;-73
2021/11/18 15:14:37;;;;;;;;;;;;;;;7.18;100.00;95451.84;10415031;28;20379;-77
2021/11/18 15:19:39;;;;;;;;;;;;;;;7.29;100.00;95455.53;10404090;28;20342;-74
2021/11/18 15:24:41;;;;;;;;;;;;;;;7.46;100.00;95451.09;10416278;28;20441;-73
2021/11/18 15:29:43;;;;;;;;;;;;;;;7.46;100.00;95460.97;10402566;28;20500;-78
2021/11/18 15:34:44;;;;;;;;;;;;;;;7.52;100.00;95457.34;10400415;28;19913;-73
2021/11/18 15:39:45;;;;;;;;;;;;;;;7.52;100.00;95465.38;10398908;28;20011;-74
2021/11/18 15:44:45;;;;;;;;;;;;;;;7.55;100.00;95467.59;10417332;28;19921;-75
2021/11/18 15:49:46;;;;;;;;;;;;;;;7.36;100.00;95473.06;10384192;28;19988;-75
2021/11/18 15:54:46;;;;;;;;;;;;;;;7.47;100.00;95474.13;10400043;28;19917;-74
2021/11/18 15:59:47;;;;;;;;;;;;;;;7.53;100.00;95475.88;10397651;28;19917;-74
2021/11/18 16:04:48;;;;;;;;;;;;;;;7.42;100.00;95471.31;10415847;28;20355;-73
2021/11/18 16:09:49;;;;;;;;;;;;;;;7.27;100.00;95485.19;10397886;28;20075;-70
2021/11/18 16:14:54;;;;;;;;;;;;;;;7.35;100.00;95478.66;10382490;28;20352;-73
2021/11/18 16:19:55;;;;;;;;;;;;;;;7.30;100.00;95492.75;10400961;28;19913;-75
2021/11/18 16:24:56;;;;;;;;;;;;;;;7.31;100.00;95489.03;10400925;28;20382;-74
2021/11/18 16:29:57;;;;;;;;;;;;;;;7.19;100.00;95502.38;10415871;28;19963;-76
2021/11/18 16:34:59;;;;;;;;;;;;;;;7.17;100.00;95503.66;10414024;28;20546;-76
2021/11/18 16:40:01;;;;;;;;;;;;;;;6.98;100.00;95514.47;10399297;28;19913;-74
2021/11/18 16:45:03;;;;;;;;;;;;;;;6.86;100.00;95518.97;10414723;28;20318;-77
2021/11/18 16:50:08;;;;;;;;;;;;;;;6.79;100.00;95513.72;10415578;28;19913;-74
2021/11/18 16:55:10;;;;;;;;;;;;;;;6.73;100.00;95513.88;10399413;28;20416;-76
2021/11/18 17:00:13;;;;;;;;;;;;;;;6.61;100.00;95517.28;10400361;28;20028;-76
2021/11/18 17:05:14;;;;;;;;;;;;;;;6.64;100.00;95521.38;10398980;28;19923;-77
2021/11/18 17:10:15;;;;;;;;;;;;;;;6.76;100.00;95511.53;10412184;28;20499;-77
2021/11/18 17:15:16;;;;;;;;;;;;;;;6.84;100.00;95526.44;10407381;28;20012;-72
2021/11/18 17:20:17;;;;;;;;;;;;;;;6.83;100.00;95524.78;10406159;28;19920;-73
2021/11/18 17:25:20;;;;;;;;;;;;;;;6.91;100.00;95532.47;10406427;28;19921;-76
2021/11/18 17:30:26;;;;;;;;;;;;;;;6.71;100.00;95531.97;10396776;28;19918;-78
2021/11/18 17:35:28;;;;;;;;;;;;;;;6.56;100.00;95549.22;10382069;28;19917;-74
2021/11/18 17:40:30;;;;;;;;;;;;;;;6.65;100.00;95545.19;10403517;28;19916;-76
2021/11/18 17:45:35;;;;;;;;;;;;;;;6.59;100.00;95553.31;10402961;28;20405;-77
2021/11/18 17:50:41;;;;;;;;;;;;;;;6.45;100.00;95566.84;10402646;28;19925;-74
2021/11/18 17:55:41;;;;;;;;;;;;;;;6.38;100.00;95566.13;10421217;28;20382;-77
2021/11/18 18:00:42;;;;;;;;;;;;;;;6.30;100.00;95567.22;10406298;28;19917;-78
2021/11/18 18:05:42;;;;;;;;;;;;;;;6.41;100.00;95559.50;10420687;28;20310;-75
2021/11/18 18:10:43;;;;;;;;;;;;;;;6.16;100.00;95553.25;10418255;28;20024;-77
2021/11/18 18:15:44;;;;;;;;;;;;;;;6.36;100.00;95554.84;10403674;28;19924;-77
2021/11/18 18:20:49;;;;;;;;;;;;;;;6.35;100.00;95560.41;10403777;28;19917;-73
2021/11/18 18:25:51;;;;;;;;;;;;;;;6.36;100.00;95552.16;10401694;28;20437;-74
2021/11/18 18:30:53;;;;;;;;;;;;;;;6.15;100.00;95564.97;10419874;28;19917;-77
2021/11/18 18:35:53;;;;;;;;;;;;;;;5.72;100.00;95562.34;10419789;28;19917;-79
2021/11/18 18:40:57;;;;;;;;;;;;;;;5.56;100.00;95577.91;10402900;28;19917;-73
2021/11/18 18:45:58;;;;;;;;;;;;;;;5.34;100.00;95582.00;10395818;28;19914;-76
2021/11/18 18:51:00;;;;;;;;;;;;;;;5.63;100.00;95591.97;10383595;28;19925;-77
2021/11/18 18:56:00;;;;;;;;;;;;;;;5.66;100.00;95588.06;10391433;28;19913;-78
2021/11/18 19:01:03;;;;;;;;;;;;;;;5.16;100.00;95604.91;10404420;28;19913;-74
2021/11/18 19:06:07;;;;;;;;;;;;;;;5.44;100.00;95604.47;10401117;28;20318;-78
2021/11/18 19:11:09;;;;;;;;;;;;;;;5.51;100.00;95614.25;10407695;28;19948;-75
2021/11/18 19:16:11;;;;;;;;;;;;;;;5.56;100.00;95609.91;10397567;28;20026;-73
2021/11/18 19:21:12;;;;;;;;;;;;;;;5.46;100.00;95609.59;10391619;28;20406;-78
2021/11/18 19:26:25;;;;;;;;;;;;;;;5.65;100.00;95607.75;10417113;28;19913;-78
2021/11/18 19:36:50;;;;;;;;;;;;;;;5.50;100.00;95613.44;10414246;28;20391;-75
2021/11/18 19:41:52;;;;;;;;;;;;;;;5.51;100.00;95607.06;10400116;28;19917;-75
2021/11/18 19:46:53;;;;;;;;;;;;;;;5.41;100.00;95604.09;10393945;28;20408;-75
2021/11/18 19:51:55;;;;;;;;;;;;;;;4.99;100.00;95603.81;10379008;28;19978;-73
2021/11/18 19:56:56;;;;;;;;;;;;;;;4.77;100.00;95607.66;10381568;28;19914;-77
2021/11/18 20:01:57;;;;;;;;;;;;;;;4.53;100.00;95609.22;10383503;28;19925;-76
2021/11/18 20:07:00;;;;;;;;;;;;;;;4.70;100.00;95604.22;10395377;28;19917;-77
2021/11/18 20:12:04;;;;;;;;;;;;;;;5.03;100.00;95618.34;10415319;28;20206;-78
2021/11/18 20:17:06;;;;;;;;;;;;;;;5.25;100.00;95626.78;10416634;28;19917;-77
2021/11/18 20:22:07;;;;;;;;;;;;;;;5.45;100.00;95619.41;10399392;28;19971;-73
2021/11/18 20:27:08;;;;;;;;;;;;;;;5.28;100.00;95613.81;10399977;28;19956;-74
2021/11/18 20:32:19;;;;;;;;;;;;;;;5.19;100.00;95616.97;10399595;28;20062;-78
2021/11/18 20:37:22;;;;;;;;;;;;;;;5.14;100.00;95620.31;10409922;28;19920;-79
2021/11/18 20:42:23;;;;;;;;;;;;;;;5.09;100.00;95617.47;10415332;28;19978;-78
2021/11/18 20:47:24;;;;;;;;;;;;;;;5.21;100.00;95615.75;10404163;28;20272;-78
2021/11/18 20:52:27;;;;;;;;;;;;;;;5.13;100.00;95619.50;10424003;28;19924;-76
2021/11/18 20:57:30;;;;;;;;;;;;;;;5.05;100.00;95608.28;10423444;28;19970;-74
2021/11/18 21:02:31;;;;;;;;;;;;;;;5.15;100.00;95603.28;10408000;28;19921;-77
2021/11/18 21:07:35;;;;;;;;;;;;;;;5.03;100.00;95616.47;10407983;28;19978;-74
2021/11/18 21:12:37;;;;;;;;;;;;;;;4.89;100.00;95620.28;10407952;28;19961;-72
2021/11/18 21:17:37;;;;;;;;;;;;;;;4.87;100.00;95607.19;10423808;28;20012;-80
2021/11/18 21:22:38;;;;;;;;;;;;;;;4.92;100.00;95612.66;10422930;28;20065;-78
2021/11/18 21:27:39;;;;;;;;;;;;;;;4.94;100.00;95605.28;10421931;28;19923;-77
2021/11/18 21:32:39;;;;;;;;;;;;;;;4.89;100.00;95602.44;10406653;28;19923;-75
2021/11/18 21:37:39;;;;;;;;;;;;;;;4.77;100.00;95610.31;10405868;28;20389;-78
2021/11/18 21:42:39;;;;;;;;;;;;;;;4.78;100.00;95605.81;10406231;28;20310;-77
2021/11/18 21:47:50;;;;;;;;;;;;;;;4.86;100.00;95594.88;10407223;28;19938;-79
2021/11/18 21:52:51;;;;;;;;;;;;;;;4.80;100.00;95601.09;10405163;28;20377;-73
2021/11/18 21:57:51;;;;;;;;;;;;;;;4.91;100.00;95604.88;10405038;28;19917;-78
2021/11/18 22:02:52;;;;;;;;;;;;;;;4.76;100.00;95592.72;10404999;28;19917;-75
2021/11/18 22:07:53;;;;;;;;;;;;;;;4.86;100.00;95591.41;10402008;28;19913;-78
2021/11/18 22:12:53;;;;;;;;;;;;;;;4.94;100.00;95599.16;10404146;28;19996;-75
2021/11/18 22:17:55;;;;;;;;;;;;;;;5.01;100.00;95607.06;10406034;28;20755;-76
2021/11/18 22:22:55;;;;;;;;;;;;;;;5.12;100.00;95601.03;10421706;28;19917;-78
2021/11/18 22:27:56;;;;;;;;;;;;;;;5.25;100.00;95608.13;10412876;28;19913;-78
2021/11/18 22:32:56;;;;;;;;;;;;;;;5.17;100.00;95601.22;10420559;28;20228;-76
2021/11/18 22:37:57;;;;;;;;;;;;;;;4.57;100.00;95607.75;10420716;28;19963;-72
2021/11/18 22:42:58;;;;;;;;;;;;;;;4.43;100.00;95608.88;10405279;28;20429;-74
2021/11/18 22:47:59;;;;;;;;;;;;;;;4.57;100.00;95605.09;10404619;28;19913;-77
2021/11/18 22:53:00;;;;;;;;;;;;;;;4.29;100.00;95610.78;10419456;28;19913;-76
2021/11/18 22:58:01;;;;;;;;;;;;;;;4.38;100.00;95611.34;10419681;28;20403;-75
2021/11/18 23:03:02;;;;;;;;;;;;;;;4.27;100.00;95620.84;10419266;28;19921;-78
2021/11/18 23:08:03;;;;;;;;;;;;;;;4.27;100.00;95623.50;10419512;28;19920;-78
2021/11/18 23:13:03;;;;;;;;;;;;;;;4.16;100.00;95627.63;10402690;28;19929;-76
2021/11/18 23:18:04;;;;;;;;;;;;;;;4.28;100.00;95631.25;10402142;28;19920;-74
2021/11/18 23:23:04;;;;;;;;;;;;;;;4.63;100.00;95627.38;10402499;28;19961;-73
2021/11/18 23:28:08;;;;;;;;;;;;;;;4.74;100.00;95608.06;10408687;28;19917;-74
2021/11/18 23:33:09;;;;;;;;;;;;;;;4.82;100.00;95606.19;10403676;28;20286;-78
2021/11/18 23:38:10;;;;;;;;;;;;;;;4.49;100.00;95597.38;10403723;28;20379;-78
2021/11/18 23:43:11;;;;;;;;;;;;;;;4.14;100.00;95605.72;10401545;28;19917;-74
2021/11/18 23:48:11;;;;;;;;;;;;;;;3.94;100.00;95606.59;10418591;28;19925;-78
2021/11/18 23:53:12;;;;;;;;;;;;;;;4.03;100.00;95603.72;10401605;28;19913;-79
2021/11/18 23:58:13;;;;;;;;;;;;;;;4.18;100.00;95614.91;10401281;28;19968;-74
